Time;durP1;ratioP1;P1;durP2;ratioP2;P2;SDS_P1;SDS_P2;PMS_P1;PMS_P2;Temp;Humidity;BMP_temperature;BMP_pressure;BME280_temperature;BME280_humidity;BME280_pressure;Samples;Min_cycle;Max_cycle;Signal;HPM_P1;HPM_P2
2021/08/31 00:02:06;;;;;;;14.53;11.70;;;;;;;;;;5117650;28;20493;-53
2021/08/31 00:04:33;;;;;;;14.30;12.80;;;;;;;;;;5117990;28;20474;-53
2021/08/31 00:07:11;;;;;;;18.00;11.70;;;;;;;;;;5118058;28;20439;-46
2021/08/31 00:09:38;;;;;;;17.30;12.50;;;;;;;;;;5116099;28;20479;-49
2021/08/31 00:12:08;;;;;;;14.80;12.07;;;;;;;;;;5118151;28;20443;-53
2021/08/31 00:15:04;;;;;;;14.30;11.33;;;;;;;;;;5117970;28;20929;-50
2021/08/31 00:17:32;;;;;;;15.93;13.30;;;;;;;;;;5117684;28;20435;-50
2021/08/31 00:19:59;;;;;;;20.00;13.40;;;;;;;;;;5117373;28;20574;-54
2021/08/31 00:22:44;;;;;;;15.43;12.37;;;;;;;;;;5117647;28;20446;-55
2021/08/31 00:25:12;;;;;;;15.90;12.70;;;;;;;;;;5117701;28;20443;-55
2021/08/31 00:27:44;;;;;;;17.60;13.17;;;;;;;;;;5117405;28;20439;-55
2021/08/31 00:33:14;;;;;;;17.23;13.83;;;;;;;;;;5115514;28;20476;-53
2021/08/31 00:35:42;;;;;;;20.20;15.10;;;;;;;;;;5117096;28;20484;-56
2021/08/31 00:38:21;;;;;;;16.80;14.10;;;;;;;;;;5117302;28;20458;-49
2021/08/31 00:40:48;;;;;;;21.73;14.80;;;;;;;;;;5116934;28;20479;-57
2021/08/31 00:43:22;;;;;;;21.43;14.30;;;;;;;;;;5117465;28;20473;-52
2021/08/31 00:45:51;;;;;;;20.07;15.43;;;;;;;;;;5116905;28;20483;-56
2021/08/31 00:48:19;;;;;;;15.07;12.80;;;;;;;;;;5117290;28;20455;-53
2021/08/31 00:50:47;;;;;;;16.63;13.57;;;;;;;;;;5100201;28;20532;-54
2021/08/31 00:53:30;;;;;;;22.17;14.23;;;;;;;;;;5117274;28;20466;-51
2021/08/31 00:55:57;;;;;;;16.87;13.47;;;;;;;;;;5114994;28;20528;-49
2021/08/31 00:58:26;;;;;;;18.67;13.80;;;;;;;;;;5117499;28;20463;-52
2021/08/31 01:01:19;;;;;;;18.70;13.70;;;;;;;;;;5117124;28;20491;-51
2021/08/31 01:03:46;;;;;;;16.53;13.60;;;;;;;;;;5117248;28;20465;-53
2021/08/31 01:06:14;;;;;;;16.93;14.07;;;;;;;;;;5117125;28;20428;-53
2021/08/31 01:11:45;;;;;;;18.60;15.00;;;;;;;;;;5115041;28;20494;-57
2021/08/31 01:14:15;;;;;;;18.30;14.47;;;;;;;;;;5116931;28;20822;-54
2021/08/31 01:17:09;;;;;;;24.17;14.10;;;;;;;;;;5120877;28;20470;-53
2021/08/31 01:19:37;;;;;;;22.43;16.30;;;;;;;;;;5120924;28;20466;-52
2021/08/31 01:22:05;;;;;;;20.37;15.20;;;;;;;;;;5120940;28;20442;-55
2021/08/31 01:24:33;;;;;;;16.47;14.33;;;;;;;;;;5121063;28;20435;-56
2021/08/31 01:27:02;;;;;;;19.80;15.43;;;;;;;;;;5120641;28;20510;-48
2021/08/31 01:29:31;;;;;;;18.90;15.93;;;;;;;;;;5120916;28;20501;-54
2021/08/31 01:31:58;;;;;;;17.30;14.17;;;;;;;;;;5120767;28;20440;-61
2021/08/31 01:34:28;;;;;;;20.80;16.13;;;;;;;;;;5120868;28;20469;-51
2021/08/31 01:36:56;;;;;;;20.80;14.93;;;;;;;;;;5120841;28;20474;-50
2021/08/31 01:39:23;;;;;;;18.33;14.90;;;;;;;;;;5120631;28;20470;-51
2021/08/31 01:44:55;;;;;;;20.30;14.87;;;;;;;;;;5118721;28;20530;-51
2021/08/31 01:47:23;;;;;;;23.97;15.10;;;;;;;;;;5120437;28;20474;-59
2021/08/31 01:49:51;;;;;;;18.53;14.60;;;;;;;;;;5102769;28;20451;-54
2021/08/31 01:52:19;;;;;;;18.83;15.70;;;;;;;;;;5120197;28;20455;-51
2021/08/31 01:54:46;;;;;;;23.17;17.50;;;;;;;;;;5120171;28;20491;-55
2021/08/31 01:57:19;;;;;;;18.10;15.67;;;;;;;;;;5120228;28;20439;-51
2021/08/31 01:59:47;;;;;;;24.87;19.10;;;;;;;;;;5119910;28;20462;-54
2021/08/31 02:02:16;;;;;;;20.53;16.33;;;;;;;;;;5120131;28;20436;-48
2021/08/31 02:05:02;;;;;;;24.03;17.80;;;;;;;;;;5119415;28;20475;-55
2021/08/31 02:07:31;;;;;;;21.10;17.73;;;;;;;;;;5102505;28;20514;-50
2021/08/31 02:09:59;;;;;;;25.67;17.80;;;;;;;;;;5119967;28;20440;-54
2021/08/31 02:12:37;;;;;;;19.43;16.47;;;;;;;;;;5119612;28;20439;-53
2021/08/31 02:15:05;;;;;;;24.67;18.57;;;;;;;;;;5119815;28;20465;-57
2021/08/31 02:17:34;;;;;;;22.20;17.70;;;;;;;;;;5119638;28;20440;-50
2021/08/31 02:20:23;;;;;;;21.57;17.93;;;;;;;;;;5119753;28;20506;-54
2021/08/31 02:22:51;;;;;;;24.33;17.20;;;;;;;;;;5118078;28;20494;-51
2021/08/31 02:25:19;;;;;;;30.43;17.30;;;;;;;;;;5119658;28;20466;-48
2021/08/31 02:27:53;;;;;;;23.97;18.63;;;;;;;;;;5118490;28;20459;-54
2021/08/31 02:30:21;;;;;;;22.60;18.13;;;;;;;;;;5119231;28;20443;-47
2021/08/31 02:32:50;;;;;;;23.40;20.57;;;;;;;;;;5119948;28;20444;-51
2021/08/31 02:35:19;;;;;;;26.87;19.70;;;;;;;;;;5119643;28;20435;-48
2021/08/31 02:37:47;;;;;;;25.20;19.37;;;;;;;;;;5120295;28;20459;-49
2021/08/31 02:40:15;;;;;;;25.57;18.87;;;;;;;;;;5108735;28;20470;-53
2021/08/31 02:45:47;;;;;;;24.43;17.33;;;;;;;;;;5109539;28;20482;-48
2021/08/31 02:48:19;;;;;;;27.97;20.83;;;;;;;;;;5119073;28;20513;-48
2021/08/31 02:53:51;;;;;;;21.87;18.30;;;;;;;;;;5117530;28;20474;-52
2021/08/31 02:56:18;;;;;;;26.83;19.30;;;;;;;;;;5119108;28;20456;-52
2021/08/31 02:58:47;;;;;;;22.50;18.77;;;;;;;;;;5118874;28;20537;-52
2021/08/31 03:01:32;;;;;;;26.50;19.03;;;;;;;;;;5118934;28;20546;-54
2021/08/31 03:04:22;;;;;;;26.97;21.10;;;;;;;;;;5119115;28;20434;-52
2021/08/31 03:06:53;;;;;;;27.00;19.20;;;;;;;;;;5118063;28;20447;-55
2021/08/31 03:09:21;;;;;;;27.80;20.00;;;;;;;;;;5118733;28;20522;-53
2021/08/31 03:11:55;;;;;;;28.77;20.17;;;;;;;;;;5118383;28;20439;-49
2021/08/31 03:14:22;;;;;;;26.00;19.50;;;;;;;;;;5118644;28;20452;-51
2021/08/31 03:16:50;;;;;;;25.77;20.20;;;;;;;;;;5118246;28;20447;-57
2021/08/31 03:19:54;;;;;;;33.20;22.97;;;;;;;;;;5118912;28;20419;-52
2021/08/31 03:22:25;;;;;;;30.73;24.40;;;;;;;;;;5118135;28;20498;-47
2021/08/31 03:24:53;;;;;;;27.40;21.60;;;;;;;;;;5118817;28;20427;-57
2021/08/31 03:27:31;;;;;;;26.83;21.33;;;;;;;;;;5118585;28;20485;-54
2021/08/31 03:30:02;;;;;;;26.50;22.47;;;;;;;;;;5118166;28;20466;-54
2021/08/31 03:32:29;;;;;;;24.10;20.83;;;;;;;;;;5118436;28;20451;-54
2021/08/31 03:34:59;;;;;;;25.70;22.90;;;;;;;;;;5117520;28;20466;-55
2021/08/31 03:37:29;;;;;;;28.57;22.47;;;;;;;;;;5117773;28;20443;-55
2021/08/31 03:39:56;;;;;;;30.20;24.03;;;;;;;;;;5118122;28;20484;-53
2021/08/31 03:42:24;;;;;;;31.80;23.47;;;;;;;;;;5118099;28;20475;-55
2021/08/31 03:44:52;;;;;;;29.83;22.67;;;;;;;;;;5117963;28;20449;-54
2021/08/31 03:47:19;;;;;;;35.73;24.13;;;;;;;;;;5117992;28;20459;-50
2021/08/31 03:50:03;;;;;;;34.23;26.43;;;;;;;;;;5117897;28;20497;-53
2021/08/31 03:52:32;;;;;;;28.03;24.37;;;;;;;;;;5097234;28;20460;-52
2021/08/31 03:54:59;;;;;;;25.40;22.70;;;;;;;;;;5097331;28;20496;-52
2021/08/31 03:57:35;;;;;;;28.30;24.00;;;;;;;;;;5097647;28;20464;-53
2021/08/31 04:00:03;;;;;;;34.47;25.37;;;;;;;;;;5097558;28;20499;-52
2021/08/31 04:02:30;;;;;;;29.77;23.93;;;;;;;;;;5097314;28;20464;-58
2021/08/31 04:05:01;;;;;;;33.73;23.53;;;;;;;;;;5097449;28;20447;-51
2021/08/31 04:07:28;;;;;;;34.47;26.97;;;;;;;;;;5097171;28;20484;-51
2021/08/31 04:13:01;;;;;;;31.57;24.40;;;;;;;;;;5097441;28;20487;-51
2021/08/31 04:15:29;;;;;;;31.90;26.03;;;;;;;;;;5098909;28;20468;-54
2021/08/31 04:17:57;;;;;;;33.43;24.77;;;;;;;;;;5117283;28;20459;-54
2021/08/31 04:20:25;;;;;;;32.73;25.70;;;;;;;;;;5115492;28;20450;-59
2021/08/31 04:22:52;;;;;;;35.33;25.67;;;;;;;;;;5117212;28;20498;-51
2021/08/31 04:25:24;;;;;;;30.97;23.07;;;;;;;;;;5117465;28;20424;-48
2021/08/31 04:27:52;;;;;;;34.33;24.63;;;;;;;;;;5111102;28;20440;-56
2021/08/31 04:30:22;;;;;;;30.97;25.10;;;;;;;;;;5113398;28;20448;-51
2021/08/31 04:32:51;;;;;;;29.90;23.40;;;;;;;;;;5104641;28;20532;-50
2021/08/31 04:35:27;;;;;;;36.70;27.13;;;;;;;;;;5108796;28;20571;-50
2021/08/31 04:37:56;;;;;;;31.20;23.13;;;;;;;;;;5095459;28;20479;-51
2021/08/31 04:40:24;;;;;;;40.70;29.50;;;;;;;;;;5089101;28;20453;-53
2021/08/31 04:42:52;;;;;;;32.90;24.07;;;;;;;;;;5096412;28;20491;-52
2021/08/31 04:45:22;;;;;;;33.60;25.17;;;;;;;;;;5096678;28;20468;-54
2021/08/31 04:47:54;;;;;;;35.33;24.97;;;;;;;;;;5096936;28;20516;-53
2021/08/31 04:50:22;;;;;;;42.30;28.70;;;;;;;;;;5084105;28;20449;-48
2021/08/31 04:52:49;;;;;;;39.07;26.73;;;;;;;;;;5085575;28;20672;-54
2021/08/31 04:55:19;;;;;;;48.43;28.37;;;;;;;;;;5100345;28;20467;-57
2021/08/31 04:57:46;;;;;;;52.13;29.80;;;;;;;;;;5100788;28;20466;-53
2021/08/31 05:00:15;;;;;;;44.67;28.67;;;;;;;;;;5100258;28;20527;-53
2021/08/31 05:02:49;;;;;;;43.93;28.80;;;;;;;;;;5092009;28;20480;-48
2021/08/31 05:05:17;;;;;;;43.73;28.30;;;;;;;;;;5090487;28;20441;-53
2021/08/31 05:07:45;;;;;;;41.17;28.70;;;;;;;;;;5088115;28;20451;-56
2021/08/31 05:10:14;;;;;;;47.87;30.57;;;;;;;;;;5099794;28;20467;-55
2021/08/31 05:12:47;;;;;;;48.80;32.03;;;;;;;;;;5096739;28;20515;-55
2021/08/31 05:15:14;;;;;;;55.70;33.10;;;;;;;;;;5090010;28;20457;-55
2021/08/31 05:17:42;;;;;;;45.67;30.47;;;;;;;;;;5093013;28;20448;-54
2021/08/31 05:23:21;;;;;;;41.77;29.10;;;;;;;;;;5097223;28;20444;-50
2021/08/31 05:26:19;;;;;;;52.60;29.33;;;;;;;;;;5099535;28;20467;-55
2021/08/31 05:28:53;;;;;;;36.20;25.33;;;;;;;;;;5099392;28;20546;-52
2021/08/31 05:31:30;;;;;;;37.20;24.40;;;;;;;;;;5099088;28;20519;-52
2021/08/31 05:33:59;;;;;;;40.80;27.50;;;;;;;;;;5098949;28;20698;-52
2021/08/31 05:36:42;;;;;;;38.80;26.47;;;;;;;;;;5099215;28;20451;-55
2021/08/31 05:42:33;;;;;;;43.80;29.10;;;;;;;;;;5093324;28;20479;-50
2021/08/31 05:45:02;;;;;;;41.90;29.90;;;;;;;;;;5098011;28;20448;-56
2021/08/31 05:50:33;;;;;;;43.37;28.03;;;;;;;;;;5098726;28;20446;-58
2021/08/31 05:56:05;;;;;;;37.30;27.03;;;;;;;;;;5137882;28;20668;-53
2021/08/31 05:58:39;;;;;;;38.60;26.90;;;;;;;;;;5133581;28;20454;-59
2021/08/31 06:01:08;;;;;;;34.37;25.40;;;;;;;;;;5138776;28;20461;-52
2021/08/31 06:03:35;;;;;;;32.00;23.40;;;;;;;;;;5159195;27;20445;-57
2021/08/31 06:06:02;;;;;;;30.00;22.57;;;;;;;;;;5159648;27;20460;-59
2021/08/31 06:11:38;;;;;;;30.90;22.20;;;;;;;;;;5106457;28;20499;-53
2021/08/31 06:14:07;;;;;;;29.30;23.10;;;;;;;;;;5088158;28;20445;-53
2021/08/31 06:16:39;;;;;;;33.50;24.27;;;;;;;;;;5091423;28;20440;-54
2021/08/31 06:19:06;;;;;;;41.67;26.17;;;;;;;;;;5098607;28;20511;-56
2021/08/31 06:21:36;;;;;;;31.87;23.80;;;;;;;;;;5098339;28;20518;-55
2021/08/31 06:24:09;;;;;;;33.50;25.70;;;;;;;;;;5098279;28;20448;-52
2021/08/31 06:26:37;;;;;;;36.77;25.97;;;;;;;;;;5098247;28;20444;-50
2021/08/31 06:29:42;;;;;;;37.10;27.60;;;;;;;;;;5098128;28;20456;-53
2021/08/31 06:32:11;;;;;;;33.33;25.23;;;;;;;;;;5111541;28;20498;-53
2021/08/31 06:34:38;;;;;;;33.67;25.73;;;;;;;;;;5118816;28;20461;-58
2021/08/31 06:37:41;;;;;;;40.00;29.90;;;;;;;;;;5117825;28;20452;-52
2021/08/31 06:40:09;;;;;;;31.63;25.00;;;;;;;;;;5116045;28;20508;-53
2021/08/31 06:42:37;;;;;;;42.63;30.30;;;;;;;;;;5118013;28;20517;-53
2021/08/31 06:45:10;;;;;;;43.53;28.00;;;;;;;;;;5118449;28;20459;-58
2021/08/31 06:47:39;;;;;;;36.83;28.50;;;;;;;;;;5117910;28;20467;-53
2021/08/31 06:50:33;;;;;;;40.00;29.97;;;;;;;;;;5116735;28;20474;-53
2021/08/31 06:53:05;;;;;;;41.13;30.43;;;;;;;;;;5113514;28;20443;-53
2021/08/31 06:55:42;;;;;;;43.07;32.30;;;;;;;;;;5097476;28;20460;-54
2021/08/31 06:58:10;;;;;;;38.47;29.77;;;;;;;;;;5097533;28;20440;-56
2021/08/31 07:00:38;;;;;;;47.27;35.23;;;;;;;;;;5097389;28;20475;-52
2021/08/31 07:03:18;;;;;;;46.40;36.10;;;;;;;;;;5107327;28;20491;-52
2021/08/31 07:05:45;;;;;;;48.60;36.27;;;;;;;;;;5107055;28;20447;-52
2021/08/31 07:08:13;;;;;;;51.70;38.17;;;;;;;;;;5116692;28;20467;-49
2021/08/31 07:11:05;;;;;;;54.80;37.77;;;;;;;;;;5111416;28;20440;-56
2021/08/31 07:13:35;;;;;;;46.50;32.97;;;;;;;;;;5096761;28;20499;-53
2021/08/31 07:16:06;;;;;;;43.03;35.10;;;;;;;;;;5102407;28;20447;-50
2021/08/31 07:18:54;;;;;;;51.30;36.30;;;;;;;;;;5116914;28;20464;-56
2021/08/31 07:21:23;;;;;;;51.43;38.00;;;;;;;;;;5129258;28;20477;-52
2021/08/31 07:23:51;;;;;;;46.57;33.50;;;;;;;;;;5119863;28;20475;-52
2021/08/31 07:26:34;;;;;;;53.00;34.47;;;;;;;;;;5124335;28;20487;-56
2021/08/31 07:29:04;;;;;;;50.00;35.30;;;;;;;;;;5107069;28;20480;-51
2021/08/31 07:31:31;;;;;;;55.87;35.10;;;;;;;;;;5097199;28;20491;-51
2021/08/31 07:34:11;;;;;;;48.27;34.97;;;;;;;;;;5096578;28;20452;-55
2021/08/31 07:36:48;;;;;;;50.43;35.23;;;;;;;;;;5076577;28;20456;-56
2021/08/31 07:39:22;;;;;;;52.73;36.37;;;;;;;;;;5085572;28;20450;-54
2021/08/31 07:41:50;;;;;;;55.53;38.00;;;;;;;;;;5094523;28;20486;-54
2021/08/31 07:44:19;;;;;;;58.23;37.00;;;;;;;;;;5096156;28;20463;-55
2021/08/31 07:49:55;;;;;;;62.70;37.50;;;;;;;;;;5076641;28;20447;-49
2021/08/31 07:52:24;;;;;;;55.30;34.90;;;;;;;;;;5108341;28;20545;-56
2021/08/31 07:54:51;;;;;;;62.07;38.93;;;;;;;;;;5116438;28;20443;-53
2021/08/31 07:57:20;;;;;;;66.13;37.97;;;;;;;;;;5117128;28;20474;-52
2021/08/31 07:59:48;;;;;;;63.60;38.33;;;;;;;;;;5116083;28;20481;-54
2021/08/31 08:02:23;;;;;;;63.83;39.90;;;;;;;;;;5116980;28;20705;-52
2021/08/31 08:05:00;;;;;;;59.10;36.83;;;;;;;;;;5117299;28;20436;-49
2021/08/31 08:07:29;;;;;;;53.70;36.70;;;;;;;;;;5116528;28;20435;-56
2021/08/31 08:10:01;;;;;;;66.67;36.87;;;;;;;;;;5116231;28;20447;-52
2021/08/31 08:12:32;;;;;;;57.60;35.60;;;;;;;;;;5113967;28;20460;-55
2021/08/31 08:15:02;;;;;;;59.33;35.70;;;;;;;;;;5121825;28;20486;-56
2021/08/31 08:17:31;;;;;;;59.27;37.80;;;;;;;;;;5137242;28;20676;-52
2021/08/31 08:20:11;;;;;;;64.90;38.63;;;;;;;;;;5136662;27;20498;-55
2021/08/31 08:22:40;;;;;;;70.80;39.60;;;;;;;;;;5136966;28;20531;-54
2021/08/31 08:28:18;;;;;;;73.27;37.97;;;;;;;;;;5128997;28;20454;-53
2021/08/31 08:33:45;;;;;;;73.17;41.57;;;;;;;;;;5083479;28;20483;-57
2021/08/31 08:36:22;;;;;;;72.67;40.10;;;;;;;;;;5096340;28;20530;-56
2021/08/31 08:38:51;;;;;;;71.03;41.70;;;;;;;;;;5097831;28;20474;-54
2021/08/31 08:41:18;;;;;;;70.43;40.17;;;;;;;;;;5116096;28;20425;-57
2021/08/31 08:43:48;;;;;;;77.20;39.00;;;;;;;;;;5115249;28;20569;-55
2021/08/31 08:46:17;;;;;;;71.90;38.77;;;;;;;;;;5116193;28;20444;-55
2021/08/31 08:48:58;;;;;;;62.80;38.27;;;;;;;;;;5116037;28;20462;-55
2021/08/31 08:54:30;;;;;;;71.97;42.10;;;;;;;;;;5131876;28;20468;-53
2021/08/31 08:57:00;;;;;;;62.57;39.50;;;;;;;;;;5136390;28;20479;-55
2021/08/31 08:59:45;;;;;;;68.07;42.33;;;;;;;;;;5136047;28;20472;-53
2021/08/31 09:02:37;;;;;;;74.47;43.33;;;;;;;;;;5119242;28;20487;-55
2021/08/31 09:05:06;;;;;;;65.13;41.10;;;;;;;;;;5115803;28;20455;-55
2021/08/31 09:07:39;;;;;;;64.67;39.60;;;;;;;;;;5104177;28;20452;-55
2021/08/31 09:10:45;;;;;;;63.30;40.80;;;;;;;;;;5104849;28;20487;-53
2021/08/31 09:13:14;;;;;;;63.97;40.20;;;;;;;;;;5095611;28;20459;-57
2021/08/31 09:15:44;;;;;;;61.73;39.30;;;;;;;;;;5094699;28;20513;-51
2021/08/31 09:21:30;;;;;;;65.80;38.70;;;;;;;;;;5094812;28;20442;-51
2021/08/31 09:23:59;;;;;;;68.60;43.37;;;;;;;;;;5094890;28;20503;-51
2021/08/31 09:26:45;;;;;;;63.40;38.90;;;;;;;;;;5094707;28;20440;-56
2021/08/31 09:29:18;;;;;;;58.03;37.27;;;;;;;;;;5114217;28;20443;-52
2021/08/31 09:34:54;;;;;;;64.10;40.03;;;;;;;;;;5115207;28;20453;-52
2021/08/31 09:37:38;;;;;;;79.27;43.03;;;;;;;;;;5106678;28;20497;-54
2021/08/31 09:40:27;;;;;;;73.00;44.00;;;;;;;;;;5106508;28;20463;-51
2021/08/31 09:43:09;;;;;;;85.50;45.57;;;;;;;;;;5130545;28;20547;-52
2021/08/31 09:45:39;;;;;;;76.00;47.70;;;;;;;;;;5120430;28;20469;-53
2021/08/31 09:48:08;;;;;;;75.33;47.17;;;;;;;;;;5120931;28;20451;-50
2021/08/31 09:50:37;;;;;;;79.53;45.17;;;;;;;;;;5131929;28;20462;-50
2021/08/31 09:53:40;;;;;;;80.83;47.80;;;;;;;;;;5134758;28;20465;-51
2021/08/31 09:56:08;;;;;;;81.50;48.67;;;;;;;;;;5101858;28;20484;-58
2021/08/31 09:58:38;;;;;;;83.40;48.43;;;;;;;;;;5098088;28;20444;-61
2021/08/31 10:01:06;;;;;;;83.20;47.67;;;;;;;;;;5096501;28;20555;-55
2021/08/31 10:03:34;;;;;;;84.83;47.47;;;;;;;;;;5088672;28;20724;-56
2021/08/31 10:06:05;;;;;;;65.37;39.90;;;;;;;;;;5092858;28;20515;-50
2021/08/31 10:08:33;;;;;;;73.50;42.47;;;;;;;;;;5098233;28;20460;-56
2021/08/31 10:11:04;;;;;;;64.13;39.13;;;;;;;;;;5092949;28;20542;-49
2021/08/31 10:13:36;;;;;;;55.73;35.07;;;;;;;;;;5077690;28;20501;-48
2021/08/31 10:16:17;;;;;;;60.17;37.37;;;;;;;;;;5096202;28;20456;-56
2021/08/31 10:18:48;;;;;;;59.03;35.10;;;;;;;;;;5082072;28;20480;-54
2021/08/31 10:21:17;;;;;;;58.23;35.83;;;;;;;;;;5078009;28;20455;-54
2021/08/31 10:23:51;;;;;;;56.30;33.90;;;;;;;;;;5077340;28;20520;-57
2021/08/31 10:29:31;;;;;;;70.67;46.27;;;;;;;;;;5086210;28;20471;-53
2021/08/31 10:32:00;;;;;;;63.43;44.07;;;;;;;;;;5079551;28;20620;-50
2021/08/31 10:34:40;;;;;;;60.70;40.10;;;;;;;;;;5077385;28;20463;-57
2021/08/31 10:37:27;;;;;;;70.00;43.30;;;;;;;;;;5081963;28;20455;-53
2021/08/31 10:39:57;;;;;;;61.30;40.40;;;;;;;;;;5101386;28;20471;-56
2021/08/31 10:42:45;;;;;;;66.10;43.00;;;;;;;;;;5104353;28;20494;-53
2021/08/31 10:45:30;;;;;;;73.43;45.87;;;;;;;;;;5097411;28;20452;-55
2021/08/31 10:50:51;;;;;;;62.30;44.53;;;;;;;;;;5116805;28;20482;-52
2021/08/31 10:53:33;;;;;;;64.13;41.90;;;;;;;;;;5117706;28;20440;-55
2021/08/31 10:56:28;;;;;;;60.90;41.13;;;;;;;;;;5117375;28;20439;-62
2021/08/31 10:59:00;;;;;;;63.77;44.27;;;;;;;;;;5097842;28;20467;-50
2021/08/31 11:04:35;;;;;;;55.60;40.77;;;;;;;;;;5102650;28;20484;-54
2021/08/31 11:07:02;;;;;;;56.37;42.47;;;;;;;;;;5117161;28;20455;-54
2021/08/31 11:09:55;;;;;;;55.47;40.63;;;;;;;;;;5105761;28;20506;-55
2021/08/31 11:12:38;;;;;;;58.40;42.07;;;;;;;;;;5131113;28;20516;-54
2021/08/31 11:15:10;;;;;;;50.70;39.40;;;;;;;;;;5138350;28;20476;-52
2021/08/31 11:17:41;;;;;;;47.00;37.23;;;;;;;;;;5137665;28;20458;-57
2021/08/31 11:20:31;;;;;;;49.50;37.27;;;;;;;;;;5140206;27;20484;-55
2021/08/31 11:29:22;;;;;;;38.97;29.30;;;;;;;;;;5117207;28;20499;-47
2021/08/31 11:32:07;;;;;;;34.80;26.10;;;;;;;;;;5122438;28;20442;-53
2021/08/31 11:35:01;;;;;;;34.30;26.80;;;;;;;;;;5125206;28;20445;-55
2021/08/31 11:37:32;;;;;;;31.10;24.10;;;;;;;;;;5127068;28;20466;-54
2021/08/31 11:40:17;;;;;;;25.00;20.13;;;;;;;;;;5116992;28;20448;-52
2021/08/31 11:43:03;;;;;;;26.87;21.67;;;;;;;;;;5116221;28;20708;-50
2021/08/31 11:45:57;;;;;;;25.53;21.20;;;;;;;;;;5136651;28;20535;-57
2021/08/31 11:48:58;;;;;;;26.17;18.13;;;;;;;;;;5137072;28;20458;-57
2021/08/31 11:51:44;;;;;;;35.87;19.00;;;;;;;;;;5137400;28;20475;-48
2021/08/31 11:54:31;;;;;;;25.23;18.60;;;;;;;;;;5129482;28;20522;-57
2021/08/31 11:57:18;;;;;;;23.10;18.20;;;;;;;;;;5117238;28;20498;-58
2021/08/31 12:02:49;;;;;;;21.27;16.93;;;;;;;;;;5117078;28;20410;-54
2021/08/31 12:05:17;;;;;;;22.33;16.73;;;;;;;;;;5121568;28;20446;-57
2021/08/31 12:07:47;;;;;;;20.30;17.67;;;;;;;;;;5136939;28;20497;-54
2021/08/31 12:10:26;;;;;;;22.37;19.00;;;;;;;;;;5137260;28;20453;-52
2021/08/31 12:12:56;;;;;;;22.20;18.30;;;;;;;;;;5153519;27;20441;-52
2021/08/31 12:16:01;;;;;;;18.70;15.30;;;;;;;;;;5148434;27;20707;-53
2021/08/31 12:18:53;;;;;;;21.90;15.60;;;;;;;;;;5137336;28;20480;-51
2021/08/31 12:21:28;;;;;;;20.60;15.87;;;;;;;;;;5133485;28;20435;-56
2021/08/31 12:26:43;;;;;;;21.37;15.83;;;;;;;;;;5134870;28;20464;-53
2021/08/31 12:29:15;;;;;;;16.80;15.00;;;;;;;;;;5137120;28;20446;-60
2021/08/31 12:32:04;;;;;;;19.27;12.90;;;;;;;;;;5126057;28;20439;-50
2021/08/31 12:34:33;;;;;;;17.70;12.57;;;;;;;;;;5114226;28;20517;-48
2021/08/31 12:37:02;;;;;;;17.70;15.00;;;;;;;;;;5136664;28;20450;-56
2021/08/31 12:39:35;;;;;;;15.57;11.87;;;;;;;;;;5136303;28;20434;-49
2021/08/31 12:42:02;;;;;;;15.13;12.77;;;;;;;;;;5136671;28;20446;-52
2021/08/31 12:45:04;;;;;;;13.90;12.00;;;;;;;;;;5128521;28;20496;-59
2021/08/31 12:47:40;;;;;;;13.90;11.10;;;;;;;;;;5136324;28;20461;-50
2021/08/31 12:53:16;;;;;;;16.70;12.07;;;;;;;;;;5136637;28;20428;-58
2021/08/31 12:55:47;;;;;;;12.63;10.37;;;;;;;;;;5152308;27;20434;-52
2021/08/31 12:58:27;;;;;;;14.33;10.30;;;;;;;;;;5136679;28;20472;-53
2021/08/31 13:01:05;;;;;;;16.43;10.87;;;;;;;;;;5135686;28;20464;-50
2021/08/31 13:03:38;;;;;;;12.80;8.87;;;;;;;;;;5122989;28;20731;-57
2021/08/31 13:09:11;;;;;;;14.33;6.90;;;;;;;;;;5106602;28;20510;-54
2021/08/31 13:11:39;;;;;;;8.23;6.00;;;;;;;;;;5112143;28;20458;-53
2021/08/31 13:14:23;;;;;;;10.43;6.70;;;;;;;;;;5120010;28;20464;-51
2021/08/31 13:17:07;;;;;;;14.77;6.63;;;;;;;;;;5118045;28;20449;-52
2021/08/31 13:23:08;;;;;;;8.70;6.10;;;;;;;;;;5099095;28;20447;-54
2021/08/31 13:25:49;;;;;;;11.53;7.00;;;;;;;;;;5099332;28;20467;-54
2021/08/31 13:28:41;;;;;;;8.80;5.97;;;;;;;;;;5099229;28;20456;-50
2021/08/31 13:31:32;;;;;;;9.53;6.17;;;;;;;;;;5099425;28;20449;-58
2021/08/31 13:34:02;;;;;;;10.60;7.90;;;;;;;;;;5099095;28;20452;-53
2021/08/31 13:39:35;;;;;;;8.73;5.87;;;;;;;;;;5091159;28;20480;-50
2021/08/31 13:42:05;;;;;;;8.77;6.60;;;;;;;;;;5099450;28;20459;-52
2021/08/31 13:44:59;;;;;;;8.53;6.13;;;;;;;;;;5098542;28;20496;-55
2021/08/31 13:47:29;;;;;;;8.13;6.80;;;;;;;;;;5092237;28;20460;-49
2021/08/31 13:49:57;;;;;;;8.80;6.83;;;;;;;;;;5098391;28;20456;-50
2021/08/31 13:52:32;;;;;;;7.90;5.80;;;;;;;;;;5098533;28;20436;-52
2021/08/31 13:55:24;;;;;;;10.57;6.67;;;;;;;;;;5096086;28;20459;-54
2021/08/31 13:58:12;;;;;;;9.57;6.87;;;;;;;;;;5077250;28;20480;-56
2021/08/31 14:00:49;;;;;;;15.07;8.93;;;;;;;;;;5079335;28;20449;-53
2021/08/31 14:03:17;;;;;;;17.60;10.40;;;;;;;;;;5118607;28;20451;-52
2021/08/31 14:05:54;;;;;;;11.43;6.87;;;;;;;;;;5106202;28;20447;-58
2021/08/31 14:08:22;;;;;;;9.50;7.00;;;;;;;;;;5087246;28;20459;-53
2021/08/31 14:10:53;;;;;;;14.40;7.00;;;;;;;;;;5078417;28;20468;-50
2021/08/31 14:13:43;;;;;;;9.27;6.13;;;;;;;;;;5092842;28;20452;-56
2021/08/31 14:16:18;;;;;;;10.63;7.63;;;;;;;;;;5092850;28;20429;-51
2021/08/31 14:18:47;;;;;;;10.30;7.20;;;;;;;;;;5097527;28;20447;-58
2021/08/31 14:24:04;;;;;;;10.27;8.00;;;;;;;;;;5089929;28;20503;-49
2021/08/31 14:26:35;;;;;;;10.03;6.50;;;;;;;;;;5096785;28;20477;-53
2021/08/31 14:29:05;;;;;;;15.97;11.43;;;;;;;;;;5082457;28;20444;-50
2021/08/31 14:31:43;;;;;;;15.83;9.20;;;;;;;;;;5098880;28;20495;-49
2021/08/31 14:34:15;;;;;;;8.87;6.90;;;;;;;;;;5091478;28;20509;-53
2021/08/31 14:36:49;;;;;;;11.93;7.90;;;;;;;;;;5087469;28;20424;-57
2021/08/31 14:39:40;;;;;;;10.60;7.30;;;;;;;;;;5097129;28;20509;-54
2021/08/31 14:42:28;;;;;;;8.30;7.00;;;;;;;;;;5111585;28;20473;-54
2021/08/31 14:44:57;;;;;;;10.40;6.20;;;;;;;;;;5073474;28;20476;-58
2021/08/31 14:47:26;;;;;;;7.00;5.60;;;;;;;;;;5091630;28;20543;-58
2021/08/31 14:50:02;;;;;;;11.53;7.00;;;;;;;;;;5097476;28;20487;-58
2021/08/31 14:52:31;;;;;;;8.00;5.20;;;;;;;;;;5096638;28;20448;-52
2021/08/31 14:55:26;;;;;;;8.67;5.97;;;;;;;;;;5078471;28;20460;-53
2021/08/31 14:57:57;;;;;;;11.20;6.40;;;;;;;;;;5091416;28;20451;-49
2021/08/31 15:00:28;;;;;;;10.83;6.80;;;;;;;;;;5095527;28;20436;-57
2021/08/31 15:02:57;;;;;;;7.10;5.53;;;;;;;;;;5075876;28;20472;-56
2021/08/31 15:05:30;;;;;;;9.10;6.50;;;;;;;;;;5076020;28;20488;-51
2021/08/31 15:07:58;;;;;;;18.10;12.37;;;;;;;;;;5102542;28;20580;-49
2021/08/31 15:10:27;;;;;;;21.37;17.80;;;;;;;;;;5116550;28;20485;-55
2021/08/31 15:13:25;;;;;;;12.43;8.47;;;;;;;;;;5099754;28;20476;-52
2021/08/31 15:15:53;;;;;;;10.17;8.17;;;;;;;;;;5122499;28;20478;-53
2021/08/31 15:18:22;;;;;;;8.70;6.37;;;;;;;;;;5131562;28;20482;-51
2021/08/31 15:20:54;;;;;;;10.80;7.60;;;;;;;;;;5137498;28;20439;-52
2021/08/31 15:23:21;;;;;;;10.10;6.00;;;;;;;;;;5137941;28;20488;-54
2021/08/31 15:25:49;;;;;;;8.83;5.67;;;;;;;;;;5138541;28;20490;-59
2021/08/31 15:28:23;;;;;;;8.93;5.87;;;;;;;;;;5127739;28;20446;-58
2021/08/31 15:30:52;;;;;;;10.40;6.17;;;;;;;;;;5117824;28;20511;-54
2021/08/31 15:33:19;;;;;;;7.57;5.73;;;;;;;;;;5120202;28;20447;-53
2021/08/31 15:35:48;;;;;;;8.37;4.83;;;;;;;;;;5138408;28;20469;-54
2021/08/31 15:38:15;;;;;;;8.07;5.40;;;;;;;;;;5138778;28;20441;-56
2021/08/31 15:40:52;;;;;;;7.33;4.97;;;;;;;;;;5102499;28;20463;-55
2021/08/31 15:43:22;;;;;;;9.30;5.20;;;;;;;;;;5118008;28;20438;-54
2021/08/31 15:46:06;;;;;;;8.53;5.10;;;;;;;;;;5116360;28;20564;-56
2021/08/31 15:48:34;;;;;;;10.00;5.63;;;;;;;;;;5117526;28;20458;-59
2021/08/31 15:51:12;;;;;;;7.70;5.43;;;;;;;;;;5135749;28;20461;-54
2021/08/31 15:53:40;;;;;;;7.90;4.70;;;;;;;;;;5130529;28;20518;-55
2021/08/31 15:56:10;;;;;;;7.60;5.13;;;;;;;;;;5138098;28;20484;-55
2021/08/31 15:58:38;;;;;;;10.97;5.83;;;;;;;;;;5138310;28;20450;-53
2021/08/31 16:01:28;;;;;;;6.90;4.80;;;;;;;;;;5137833;28;20439;-55
2021/08/31 16:04:00;;;;;;;11.17;5.70;;;;;;;;;;5136873;28;20530;-51
2021/08/31 16:06:51;;;;;;;9.77;5.60;;;;;;;;;;5157308;27;20452;-49
2021/08/31 16:09:22;;;;;;;7.10;5.00;;;;;;;;;;5145748;27;20446;-55
2021/08/31 16:11:55;;;;;;;9.37;6.10;;;;;;;;;;5137037;28;20442;-56
2021/08/31 16:14:42;;;;;;;12.33;8.67;;;;;;;;;;5132680;28;20435;-54
2021/08/31 16:20:26;;;;;;;8.73;6.30;;;;;;;;;;5095062;28;20486;-59
2021/08/31 16:29:25;;;;;;;6.40;5.00;;;;;;;;;;5110110;28;20493;-62
2021/08/31 16:31:55;;;;;;;8.03;5.53;;;;;;;;;;5117033;28;20458;-54
2021/08/31 16:34:47;;;;;;;8.97;4.80;;;;;;;;;;5116602;28;20527;-51
2021/08/31 16:37:19;;;;;;;7.53;5.53;;;;;;;;;;5131737;28;20549;-55
2021/08/31 16:39:48;;;;;;;14.00;10.10;;;;;;;;;;5136737;28;20488;-50